Terminal Aerodrome Forecast
Issued by NWS Shreveport, LA

Home | Current Version | Previous Version | Text Only | Print | Product List | Glossary On
Versions: 1 2 3 4 5 6 7 8 9 10 11 12 13 14 15 16 17
000
FTUS44 KSHV 022300 RRA
TAFLFK
TAF
KLFK 022347Z 0300/0324 VRB04KT P6SM SCT060 BKN130 OVC250
     FM030300 14004KT P6SM BKN130 OVC250
     FM030700 14004KT 6SM BR BKN012
      TEMPO 0310/0314 2SM BR OVC004
     FM031500 16006KT P6SM BKN015
     FM031700 16008KT P6SM SCT035 SCT250=

USA.gov is the U.S. government's official web portal to all federal, state and local government web resources and services.